Time;durP1;ratioP1;P1;durP2;ratioP2;P2;SDS_P1;SDS_P2;PMS_P1;PMS_P2;Temp;Humidity;BMP_temperature;BMP_pressure;BME280_temperature;BME280_humidity;BME280_pressure;Samples;Min_cycle;Max_cycle;Signal;HPM_P1;HPM_P2
2022/11/14 00:01:12;;;;;;;6.47;5.03;;;20.70;47.20;;;;;;5034362;28;20057;-67
2022/11/14 00:03:39;;;;;;;6.30;4.72;;;20.60;47.70;;;;;;5034270;28;20064;-66
2022/11/14 00:06:07;;;;;;;6.47;5.20;;;20.70;47.20;;;;;;5033727;28;20081;-67
2022/11/14 00:08:35;;;;;;;6.97;5.35;;;20.70;47.20;;;;;;5033256;28;20046;-67
2022/11/14 00:11:02;;;;;;;5.35;4.43;;;20.70;47.20;;;;;;5033105;28;20049;-67
2022/11/14 00:13:29;;;;;;;5.32;4.55;;;20.70;47.20;;;;;;5030021;28;20056;-67
2022/11/14 00:15:56;;;;;;;6.55;4.90;;;20.60;47.70;;;;;;5033124;28;20354;-67
2022/11/14 00:18:24;;;;;;;6.85;5.03;;;20.60;47.20;;;;;;5033121;28;20045;-66
2022/11/14 00:20:52;;;;;;;6.60;4.85;;;20.70;47.20;;;;;;5033256;28;20141;-66
2022/11/14 00:23:20;;;;;;;6.70;5.00;;;20.70;47.20;;;;;;5015832;28;20117;-67
2022/11/14 00:25:48;;;;;;;6.03;4.85;;;20.60;47.20;;;;;;5034049;28;20042;-67
2022/11/14 00:28:15;;;;;;;5.38;4.65;;;20.60;47.20;;;;;;5032976;28;20144;-67
2022/11/14 00:30:47;;;;;;;6.47;5.40;;;20.60;47.20;;;;;;5032860;28;20046;-63
2022/11/14 00:33:15;;;;;;;7.35;5.35;;;20.60;47.20;;;;;;5033465;28;20137;-67
2022/11/14 00:35:51;;;;;;;4.80;4.30;;;20.70;47.20;;;;;;5033301;28;20069;-67
2022/11/14 00:38:18;;;;;;;6.47;5.28;;;20.60;47.20;;;;;;5015847;28;20042;-67
2022/11/14 00:40:45;;;;;;;6.32;5.32;;;20.60;47.20;;;;;;5032791;28;20053;-66
2022/11/14 00:43:12;;;;;;;5.47;4.40;;;20.60;47.20;;;;;;5033161;28;20049;-66
2022/11/14 00:45:43;;;;;;;5.13;4.63;;;20.60;47.20;;;;;;5033453;28;20053;-67
2022/11/14 00:48:10;;;;;;;6.10;4.78;;;20.60;47.20;;;;;;5028288;28;20045;-67
2022/11/14 00:50:37;;;;;;;5.22;4.45;;;20.60;47.30;;;;;;5015688;28;20490;-66
2022/11/14 00:53:04;;;;;;;5.43;4.65;;;20.60;47.30;;;;;;5032879;28;20061;-66
2022/11/14 00:55:31;;;;;;;4.80;4.30;;;20.60;47.30;;;;;;5032918;28;20056;-67
2022/11/14 00:57:58;;;;;;;4.80;4.30;;;20.60;47.30;;;;;;5032714;28;20049;-67
2022/11/14 01:00:26;;;;;;;4.78;4.25;;;20.60;47.20;;;;;;5032482;28;20049;-67
2022/11/14 01:02:55;;;;;;;6.28;4.57;;;20.60;47.30;;;;;;5015284;28;20574;-66
2022/11/14 01:05:24;;;;;;;5.33;4.83;;;20.60;47.30;;;;;;5032671;28;20037;-67
2022/11/14 01:07:51;;;;;;;5.32;4.60;;;20.60;47.30;;;;;;5032571;28;20053;-66
2022/11/14 01:10:18;;;;;;;5.75;4.50;;;20.60;47.30;;;;;;5031531;28;20041;-67
2022/11/14 01:12:46;;;;;;;6.72;4.78;;;20.60;47.30;;;;;;5021512;28;20049;-67
2022/11/14 01:15:13;;;;;;;4.75;4.30;;;20.50;47.40;;;;;;5013329;28;20467;-67
2022/11/14 01:17:40;;;;;;;5.30;4.78;;;20.60;47.40;;;;;;5010847;28;20066;-67
2022/11/14 01:20:07;;;;;;;4.93;4.40;;;20.50;47.40;;;;;;5010124;28;20046;-67
2022/11/14 01:22:34;;;;;;;7.53;5.25;;;20.50;47.40;;;;;;5012202;28;20267;-67
2022/11/14 01:25:01;;;;;;;4.93;4.43;;;20.50;47.40;;;;;;4979341;28;20060;-66
2022/11/14 01:27:32;;;;;;;5.15;4.65;;;20.60;47.50;;;;;;5012687;28;20045;-66
2022/11/14 01:29:59;;;;;;;6.18;5.10;;;20.50;47.40;;;;;;5012649;28;20079;-66
2022/11/14 01:32:26;;;;;;;5.68;4.30;;;20.50;47.40;;;;;;5012328;28;20053;-66
2022/11/14 01:34:53;;;;;;;5.03;4.53;;;20.60;47.30;;;;;;5012794;28;20392;-63
2022/11/14 01:37:20;;;;;;;4.97;4.30;;;20.60;47.30;;;;;;5012157;28;20050;-67
2022/11/14 01:39:48;;;;;;;4.53;4.13;;;20.60;47.30;;;;;;5012374;28;20046;-66
2022/11/14 01:42:15;;;;;;;5.80;4.50;;;20.60;47.30;;;;;;5012157;28;20046;-67
2022/11/14 01:44:47;;;;;;;4.35;3.95;;;20.60;47.80;;;;;;4995024;28;20093;-66
2022/11/14 01:47:20;;;;;;;5.65;4.43;;;20.60;47.30;;;;;;5029730;28;20409;-66
2022/11/14 01:49:51;;;;;;;5.65;5.10;;;20.60;47.30;;;;;;5029779;28;20483;-67
2022/11/14 01:52:30;;;;;;;5.20;4.30;;;20.60;47.30;;;;;;5029528;28;20466;-67
2022/11/14 01:55:00;;;;;;;4.80;4.20;;;20.60;47.30;;;;;;5031837;28;20059;-67
2022/11/14 01:57:35;;;;;;;4.82;4.40;;;20.60;47.30;;;;;;5032364;28;20391;-64
2022/11/14 02:00:07;;;;;;;4.95;4.40;;;20.60;47.30;;;;;;5019142;28;20046;-67
2022/11/14 02:02:34;;;;;;;4.85;3.88;;;20.60;47.30;;;;;;5011711;28;20076;-67
2022/11/14 02:05:06;;;;;;;4.72;4.10;;;20.60;47.30;;;;;;5011989;28;20056;-67
2022/11/14 02:07:36;;;;;;;5.28;4.32;;;20.60;47.30;;;;;;5011513;28;20073;-67
2022/11/14 02:10:08;;;;;;;;;;;20.60;47.30;;;;;;5011837;28;20050;-67
2022/11/14 02:12:36;;;;;;;4.85;4.07;;;20.50;47.20;;;;;;5011464;28;20499;-67
2022/11/14 02:15:04;;;;;;;5.47;4.55;;;20.60;47.30;;;;;;5012316;28;20050;-66
2022/11/14 02:17:31;;;;;;;4.57;4.15;;;20.60;47.30;;;;;;5011478;28;20442;-67
2022/11/14 02:20:19;;;;;;;5.28;4.03;;;20.60;47.30;;;;;;5012020;28;20053;-67
2022/11/14 02:22:46;;;;;;;4.75;4.03;;;20.50;47.30;;;;;;5007304;28;20133;-66
2022/11/14 02:25:17;;;;;;;4.80;4.25;;;20.60;47.30;;;;;;5011650;28;20068;-67
2022/11/14 02:27:44;;;;;;;4.88;4.35;;;20.60;47.30;;;;;;5011859;28;20060;-67
2022/11/14 02:30:16;;;;;;;4.30;3.90;;;20.60;47.30;;;;;;5012347;28;20404;-67
2022/11/14 02:32:43;;;;;;;4.65;3.58;;;20.50;47.30;;;;;;5011771;28;20069;-66
2022/11/14 02:35:30;;;;;;;4.93;3.83;;;20.50;47.20;;;;;;4997213;28;20116;-67
2022/11/14 02:37:57;;;;;;;4.28;3.88;;;20.50;47.30;;;;;;5011926;28;20050;-67
2022/11/14 02:40:24;;;;;;;5.13;4.15;;;20.60;47.30;;;;;;4994367;28;20050;-66
2022/11/14 02:42:51;;;;;;;5.70;4.60;;;20.60;47.30;;;;;;5011436;28;20046;-67
2022/11/14 02:45:19;;;;;;;5.72;4.38;;;20.50;47.30;;;;;;5011213;28;20053;-67
2022/11/14 02:47:46;;;;;;;5.85;4.00;;;20.60;47.30;;;;;;5011689;28;20045;-67
2022/11/14 02:50:14;;;;;;;3.97;3.58;;;20.50;47.30;;;;;;5011469;28;20054;-67
2022/11/14 02:52:41;;;;;;;4.93;4.38;;;20.50;47.30;;;;;;5012107;28;20046;-67
2022/11/14 02:55:09;;;;;;;5.32;4.00;;;20.60;47.30;;;;;;5010484;28;20054;-67
2022/11/14 02:57:36;;;;;;;5.10;4.57;;;20.60;47.30;;;;;;5015556;28;20536;-66
2022/11/14 03:00:04;;;;;;;4.18;3.67;;;20.50;47.30;;;;;;5014739;28;20338;-67
2022/11/14 03:02:39;;;;;;;4.40;3.78;;;20.50;47.30;;;;;;5015313;28;20250;-67
2022/11/14 03:05:06;;;;;;;4.40;3.92;;;20.50;47.30;;;;;;5015200;28;20046;-67
2022/11/14 03:07:33;;;;;;;4.43;4.03;;;20.50;47.30;;;;;;5015198;28;20049;-67
2022/11/14 03:10:01;;;;;;;5.00;4.22;;;20.60;47.30;;;;;;5014720;28;20050;-67
2022/11/14 03:12:28;;;;;;;4.47;3.97;;;20.50;47.30;;;;;;5015267;28;20519;-67
2022/11/14 03:14:55;;;;;;;5.55;4.15;;;20.50;47.30;;;;;;5014564;28;20073;-66
2022/11/14 03:17:23;;;;;;;4.95;4.50;;;20.50;47.30;;;;;;5015118;28;20056;-67
2022/11/14 03:19:50;;;;;;;4.13;3.72;;;20.50;47.30;;;;;;5014677;28;20133;-67
2022/11/14 03:22:17;;;;;;;4.47;3.85;;;20.50;47.30;;;;;;5014830;28;20046;-67
2022/11/14 03:24:44;;;;;;;4.43;3.95;;;20.50;47.30;;;;;;5014186;28;20042;-67
2022/11/14 03:27:11;;;;;;;4.60;3.85;;;20.50;47.40;;;;;;5010517;28;20057;-64
2022/11/14 03:29:38;;;;;;;4.50;3.80;;;20.50;47.40;;;;;;4997099;28;20068;-67
2022/11/14 03:32:05;;;;;;;4.88;3.80;;;20.50;47.40;;;;;;5014722;28;20067;-67
2022/11/14 03:34:32;;;;;;;4.05;3.65;;;20.50;47.50;;;;;;5014146;28;20492;-66
2022/11/14 03:36:59;;;;;;;5.05;3.60;;;20.40;47.50;;;;;;4997411;28;20404;-67
2022/11/14 03:39:27;;;;;;;5.35;4.28;;;20.40;47.50;;;;;;5014599;28;20396;-66
2022/11/14 03:41:54;;;;;;;3.92;3.53;;;20.40;47.50;;;;;;5014883;28;20050;-67
2022/11/14 03:44:21;;;;;;;4.13;3.53;;;20.40;47.50;;;;;;4997176;28;20645;-67
2022/11/14 03:46:48;;;;;;;4.90;4.45;;;20.50;47.60;;;;;;4996973;28;20054;-67
2022/11/14 03:49:15;;;;;;;5.38;3.88;;;20.50;47.50;;;;;;5014013;28;20061;-67
2022/11/14 03:51:42;;;;;;;3.85;3.45;;;20.50;47.40;;;;;;5014484;28;20054;-66
2022/11/14 03:54:09;;;;;;;4.82;3.85;;;20.50;47.40;;;;;;4996797;28;20052;-67
2022/11/14 03:56:36;;;;;;;5.28;4.00;;;20.50;47.40;;;;;;5014375;28;20060;-66
2022/11/14 03:59:03;;;;;;;3.88;3.58;;;20.50;47.30;;;;;;5009350;28;20050;-66
2022/11/14 04:01:30;;;;;;;3.95;3.55;;;20.50;47.30;;;;;;5014402;28;20041;-66
2022/11/14 04:03:57;;;;;;;4.40;4.00;;;20.50;47.30;;;;;;5013690;28;20042;-67
2022/11/14 04:06:24;;;;;;;5.00;3.88;;;20.50;47.30;;;;;;5013297;28;20050;-66
2022/11/14 04:08:51;;;;;;;4.22;3.83;;;20.50;47.30;;;;;;5013526;28;20076;-67
2022/11/14 04:11:19;;;;;;;4.68;3.97;;;20.50;47.30;;;;;;4996257;28;20056;-67
2022/11/14 04:13:46;;;;;;;4.40;4.00;;;20.50;47.30;;;;;;5014126;28;20042;-67
2022/11/14 04:16:13;;;;;;;3.95;3.53;;;20.50;47.30;;;;;;5015424;28;20053;-67
2022/11/14 04:18:40;;;;;;;3.88;3.58;;;20.50;47.30;;;;;;5033775;28;20527;-66
2022/11/14 04:21:07;;;;;;;4.50;3.70;;;20.50;47.30;;;;;;5033387;28;20137;-66
2022/11/14 04:23:34;;;;;;;4.50;3.45;;;20.50;47.30;;;;;;5033526;28;20050;-67
2022/11/14 04:26:01;;;;;;;4.20;3.67;;;20.50;47.30;;;;;;5033458;28;20056;-67
2022/11/14 04:28:28;;;;;;;3.72;3.40;;;20.50;47.30;;;;;;5033080;28;20045;-67
2022/11/14 04:30:56;;;;;;;5.20;3.45;;;20.50;47.30;;;;;;5011416;28;20391;-67
2022/11/14 04:33:23;;;;;;;3.85;3.40;;;20.50;47.30;;;;;;5033239;28;20046;-67
2022/11/14 04:35:50;;;;;;;3.83;3.53;;;20.50;47.30;;;;;;5032448;28;20045;-67
2022/11/14 04:38:17;;;;;;;3.20;2.90;;;20.50;47.30;;;;;;5027815;28;20059;-67
2022/11/14 04:40:51;;;;;;;3.60;3.30;;;20.50;47.30;;;;;;5032376;28;20045;-67
2022/11/14 04:43:20;;;;;;;3.65;3.33;;;20.50;47.30;;;;;;5033406;28;20225;-66
2022/11/14 04:45:47;;;;;;;4.43;3.70;;;20.50;47.30;;;;;;5032654;28;20516;-67
2022/11/14 04:48:14;;;;;;;5.25;3.60;;;20.50;47.30;;;;;;5015548;28;20045;-67
2022/11/14 04:50:41;;;;;;;3.80;3.40;;;20.40;47.20;;;;;;5032793;28;20519;-66
2022/11/14 04:53:08;;;;;;;3.72;3.25;;;20.50;47.30;;;;;;5033035;28;20513;-66
2022/11/14 04:55:36;;;;;;;4.22;3.20;;;20.50;47.30;;;;;;5033120;28;20049;-67
2022/11/14 04:58:03;;;;;;;4.00;3.58;;;20.40;47.20;;;;;;5015061;28;20496;-66
2022/11/14 05:00:30;;;;;;;3.63;3.30;;;20.50;47.30;;;;;;5032810;28;20517;-67
2022/11/14 05:03:00;;;;;;;3.40;3.10;;;20.50;47.30;;;;;;5028050;28;20072;-67
2022/11/14 05:05:27;;;;;;;3.38;3.08;;;20.50;47.30;;;;;;5032199;28;20050;-66
2022/11/14 05:07:54;;;;;;;3.50;3.20;;;20.50;47.30;;;;;;5012854;28;20072;-66
2022/11/14 05:10:21;;;;;;;3.65;3.25;;;20.40;47.20;;;;;;5022564;28;20390;-67
2022/11/14 05:12:51;;;;;;;3.25;2.95;;;20.50;47.30;;;;;;5021376;28;20050;-67
2022/11/14 05:15:18;;;;;;;3.65;3.28;;;20.40;47.20;;;;;;5021294;28;20042;-66
2022/11/14 05:17:46;;;;;;;3.40;3.10;;;20.40;47.20;;;;;;5020813;28;20045;-67
2022/11/14 05:20:13;;;;;;;4.22;3.45;;;20.40;47.20;;;;;;5022185;28;20049;-66
2022/11/14 05:22:40;;;;;;;4.00;3.60;;;20.40;47.20;;;;;;5024158;28;20128;-67
2022/11/14 05:25:07;;;;;;;3.30;2.95;;;20.40;47.20;;;;;;5032418;28;20447;-67
2022/11/14 05:27:34;;;;;;;2.78;2.58;;;20.40;47.20;;;;;;5031980;28;20046;-66
2022/11/14 05:30:01;;;;;;;3.17;2.88;;;20.50;47.30;;;;;;5014457;28;20041;-66
2022/11/14 05:32:28;;;;;;;4.07;3.65;;;20.40;47.30;;;;;;5032089;28;20050;-66
2022/11/14 05:34:55;;;;;;;4.93;3.80;;;20.40;47.30;;;;;;5029389;28;20053;-67
2022/11/14 05:37:22;;;;;;;4.28;3.53;;;20.40;47.20;;;;;;5030603;28;20053;-63
2022/11/14 05:39:50;;;;;;;4.05;3.65;;;20.40;47.20;;;;;;5014370;28;20045;-67
2022/11/14 05:42:17;;;;;;;4.75;4.18;;;20.40;47.00;;;;;;5031985;28;20491;-67
2022/11/14 05:44:44;;;;;;;4.53;3.70;;;20.40;46.90;;;;;;5032272;28;20046;-67
2022/11/14 05:47:11;;;;;;;4.32;3.75;;;20.40;46.90;;;;;;5031221;28;20041;-66
2022/11/14 05:49:38;;;;;;;4.35;3.85;;;20.40;46.80;;;;;;5031956;28;20057;-67
2022/11/14 05:52:05;;;;;;;3.83;3.42;;;20.40;46.70;;;;;;5031384;28;20085;-67
2022/11/14 05:54:32;;;;;;;3.55;3.25;;;20.40;46.80;;;;;;5031016;28;20049;-67
2022/11/14 05:56:59;;;;;;;4.40;4.00;;;20.40;46.70;;;;;;5023855;28;20060;-67
2022/11/14 05:59:26;;;;;;;3.97;3.42;;;20.40;46.80;;;;;;5031279;28;20358;-66
2022/11/14 06:01:53;;;;;;;4.38;3.97;;;20.40;46.70;;;;;;5031745;28;20053;-66
2022/11/14 06:04:21;;;;;;;3.88;3.47;;;20.40;46.70;;;;;;5014460;28;20053;-66
2022/11/14 06:06:48;;;;;;;4.20;3.80;;;20.40;46.70;;;;;;5028155;28;20057;-67
2022/11/14 06:09:16;;;;;;;3.55;3.25;;;20.40;46.70;;;;;;5023317;28;20132;-68
2022/11/14 06:11:43;;;;;;;3.83;3.53;;;20.40;46.70;;;;;;5026976;28;20122;-68
2022/11/14 06:14:10;;;;;;;5.30;3.95;;;20.40;46.90;;;;;;5028647;28;20045;-67
2022/11/14 06:16:37;;;;;;;4.65;4.13;;;20.40;47.20;;;;;;5027391;28;20060;-67
2022/11/14 06:19:04;;;;;;;4.53;3.65;;;20.40;47.20;;;;;;5003660;28;20046;-68
2022/11/14 06:21:32;;;;;;;5.82;4.40;;;20.40;47.30;;;;;;5009140;28;20231;-67
2022/11/14 06:23:59;;;;;;;4.28;3.88;;;20.40;47.30;;;;;;5017956;28;20045;-68
2022/11/14 06:26:30;;;;;;;3.75;3.45;;;20.40;47.80;;;;;;5018524;28;20073;-68
2022/11/14 06:28:59;;;;;;;5.40;4.03;;;20.40;47.30;;;;;;5026494;28;20503;-68
2022/11/14 06:35:08;;;;;;;8.07;3.80;;;20.40;47.20;;;;;;5024214;28;20079;-66
2022/11/14 06:37:39;;;;;;;5.47;3.55;;;20.40;47.00;;;;;;5021939;28;20140;-66
2022/11/14 06:40:33;;;;;;;;;;;20.40;47.00;;;;;;5020468;28;20046;-65
2022/11/14 06:43:00;;;;;;;4.00;3.47;;;20.40;47.00;;;;;;5034785;28;19929;-65
2022/11/14 06:45:57;;;;;;;3.72;3.42;;;20.50;47.10;;;;;;5027289;28;20309;-63
2022/11/14 06:48:24;;;;;;;6.22;4.63;;;20.50;47.30;;;;;;5025958;28;20033;-67
2022/11/14 06:50:53;;;;;;;3.78;3.42;;;20.50;47.30;;;;;;5013928;28;20052;-65
2022/11/14 06:53:20;;;;;;;4.55;4.05;;;20.50;47.10;;;;;;5039349;28;20045;-63
2022/11/14 06:55:59;;;;;;;4.53;3.83;;;20.50;46.80;;;;;;5038995;28;20055;-63
2022/11/14 06:58:29;;;;;;;4.35;3.95;;;20.50;46.70;;;;;;5021961;28;20060;-64
2022/11/14 07:01:01;;;;;;;4.25;3.85;;;20.50;46.50;;;;;;5038895;28;20059;-66
2022/11/14 07:03:28;;;;;;;4.18;3.50;;;20.60;46.50;;;;;;5038834;28;20054;-63
2022/11/14 07:06:00;;;;;;;6.00;3.80;;;20.60;46.40;;;;;;5038891;28;20175;-63
2022/11/14 07:08:27;;;;;;;3.92;3.50;;;20.60;46.30;;;;;;5037807;28;20056;-64
2022/11/14 07:11:01;;;;;;;4.20;3.80;;;20.60;46.40;;;;;;5026836;28;20503;-65
2022/11/14 07:13:30;;;;;;;8.75;4.85;;;20.60;46.60;;;;;;5019396;28;20046;-66
2022/11/14 07:15:57;;;;;;;6.68;4.43;;;20.60;46.60;;;;;;5019208;28;20127;-68
2022/11/14 07:18:24;;;;;;;8.38;4.85;;;20.60;46.60;;;;;;5019166;28;20480;-64
2022/11/14 07:21:00;;;;;;;7.63;4.82;;;20.60;46.80;;;;;;5018735;28;20053;-64
2022/11/14 07:23:28;;;;;;;8.38;5.25;;;20.60;46.90;;;;;;5026399;28;20067;-67
2022/11/14 07:26:07;;;;;;;8.15;5.22;;;20.60;46.90;;;;;;5017889;28;20065;-65
2022/11/14 07:28:35;;;;;;;10.13;5.13;;;20.70;47.10;;;;;;5022237;28;20048;-62
2022/11/14 07:31:07;;;;;;;6.88;4.65;;;20.70;47.20;;;;;;5023858;28;20140;-65
2022/11/14 07:33:35;;;;;;;8.00;4.82;;;20.70;47.20;;;;;;5020140;28;20498;-65
2022/11/14 07:36:02;;;;;;;7.75;5.35;;;20.70;47.10;;;;;;5017916;28;20046;-67
2022/11/14 07:38:30;;;;;;;11.20;5.03;;;20.70;47.10;;;;;;5017815;28;20053;-69
2022/11/14 07:41:05;;;;;;;7.07;5.00;;;20.70;47.20;;;;;;5019369;28;20053;-66
2022/11/14 07:43:32;;;;;;;10.75;4.40;;;20.80;47.30;;;;;;5010300;28;20531;-66
2022/11/14 07:46:01;;;;;;;9.20;4.90;;;20.80;47.30;;;;;;5019234;28;20057;-66
2022/11/14 07:48:29;;;;;;;10.13;4.82;;;20.80;47.30;;;;;;5018907;28;20415;-66
2022/11/14 07:51:00;;;;;;;8.15;5.38;;;20.80;47.30;;;;;;5018370;28;20088;-66
2022/11/14 07:53:28;;;;;;;7.30;5.05;;;20.90;47.20;;;;;;5015258;28;20057;-66
2022/11/14 07:55:56;;;;;;;7.80;4.97;;;20.90;47.10;;;;;;5019739;28;20053;-66
2022/11/14 07:58:23;;;;;;;9.10;5.68;;;20.90;47.10;;;;;;5022516;28;20075;-66
2022/11/14 08:00:50;;;;;;;7.45;5.50;;;21.00;47.10;;;;;;4999489;28;20060;-70
2022/11/14 08:03:18;;;;;;;16.40;5.80;;;21.00;47.00;;;;;;5012227;28;20062;-69
2022/11/14 08:05:45;;;;;;;7.72;4.93;;;21.00;47.10;;;;;;5015340;28;20049;-67
2022/11/14 08:08:12;;;;;;;7.40;4.72;;;21.00;47.20;;;;;;5018724;28;20065;-68
2022/11/14 08:10:39;;;;;;;7.05;4.57;;;21.00;47.30;;;;;;5013842;28;20105;-66
2022/11/14 08:13:07;;;;;;;6.45;4.75;;;21.10;47.30;;;;;;5020903;28;20056;-72
2022/11/14 08:15:54;;;;;;;8.40;4.45;;;21.20;47.20;;;;;;5020191;28;20054;-67
2022/11/14 08:18:22;;;;;;;7.50;4.53;;;21.20;47.20;;;;;;5020292;28;20478;-65
2022/11/14 08:20:49;;;;;;;7.60;4.30;;;21.30;47.20;;;;;;5020548;28;20060;-66
2022/11/14 08:23:16;;;;;;;9.80;5.05;;;21.30;47.30;;;;;;5022400;28;20068;-67
2022/11/14 08:25:43;;;;;;;5.93;4.43;;;21.40;47.10;;;;;;5002948;28;20687;-67
2022/11/14 08:28:13;;;;;;;9.30;4.93;;;21.40;46.90;;;;;;5025422;28;20050;-67
2022/11/14 08:30:40;;;;;;;6.93;4.90;;;21.40;46.60;;;;;;5022557;28;20532;-66
2022/11/14 08:33:08;;;;;;;7.18;4.65;;;21.40;46.50;;;;;;5020054;28;20049;-67
2022/11/14 08:35:35;;;;;;;7.55;5.38;;;21.40;46.30;;;;;;5026878;28;20435;-66
2022/11/14 08:38:03;;;;;;;7.90;4.93;;;21.40;46.20;;;;;;5020270;28;20062;-65
2022/11/14 08:40:30;;;;;;;6.65;5.00;;;21.40;46.10;;;;;;5007087;28;20042;-66
2022/11/14 08:43:00;;;;;;;6.07;5.00;;;21.40;46.00;;;;;;5023453;28;20056;-68
2022/11/14 08:45:28;;;;;;;7.18;5.57;;;21.40;46.00;;;;;;5020757;28;20041;-69
2022/11/14 08:47:55;;;;;;;6.03;4.88;;;21.40;45.90;;;;;;5018526;28;20088;-69
2022/11/14 08:50:23;;;;;;;5.70;4.57;;;21.40;45.80;;;;;;5013623;28;20119;-68
2022/11/14 08:52:51;;;;;;;8.27;4.78;;;21.40;45.80;;;;;;5019231;28;20053;-66
2022/11/14 08:55:19;;;;;;;5.78;4.40;;;21.50;45.80;;;;;;5016093;28;20081;-67
2022/11/14 08:57:47;;;;;;;7.00;4.95;;;21.50;45.70;;;;;;5020189;28;20054;-68
2022/11/14 09:00:16;;;;;;;11.25;5.10;;;21.40;45.60;;;;;;5015557;28;20049;-67
2022/11/14 09:02:43;;;;;;;6.63;5.45;;;21.40;45.60;;;;;;5019596;28;20053;-67
2022/11/14 09:05:10;;;;;;;6.10;5.35;;;21.50;45.60;;;;;;5018860;28;20529;-67
2022/11/14 09:07:38;;;;;;;9.57;5.63;;;21.50;45.60;;;;;;5025929;28;20056;-67
2022/11/14 09:10:06;;;;;;;6.28;5.25;;;21.50;45.50;;;;;;5019657;28;20052;-68
2022/11/14 09:12:33;;;;;;;5.20;4.63;;;21.50;45.50;;;;;;5014597;28;20132;-70
2022/11/14 09:15:02;;;;;;;8.77;4.90;;;21.50;45.40;;;;;;5019076;28;20041;-66
2022/11/14 09:17:29;;;;;;;6.82;4.80;;;21.50;45.40;;;;;;5018652;28;20045;-67
2022/11/14 09:19:56;;;;;;;7.07;5.72;;;21.50;45.40;;;;;;5017413;28;20406;-66
2022/11/14 09:22:23;;;;;;;7.70;4.88;;;21.50;45.40;;;;;;5014592;28;20046;-67
2022/11/14 09:24:51;;;;;;;5.80;4.80;;;21.50;45.40;;;;;;5004297;28;20049;-67
2022/11/14 09:27:18;;;;;;;7.07;5.38;;;21.50;45.40;;;;;;5024241;28;20052;-67
2022/11/14 09:29:45;;;;;;;10.55;5.20;;;21.50;45.30;;;;;;5001643;28;20070;-67
2022/11/14 09:32:12;;;;;;;7.38;5.40;;;21.50;45.30;;;;;;5017811;28;20428;-66
2022/11/14 09:34:42;;;;;;;5.78;5.05;;;21.50;45.30;;;;;;5022576;28;20410;-65
2022/11/14 09:37:10;;;;;;;9.20;5.97;;;21.60;45.30;;;;;;5022520;28;20057;-65
2022/11/14 09:39:39;;;;;;;6.55;5.45;;;21.60;45.30;;;;;;5022850;28;20290;-65
2022/11/14 09:42:40;;;;;;;8.50;5.72;;;21.60;45.30;;;;;;5023089;28;20053;-66
2022/11/14 09:45:11;;;;;;;7.20;5.13;;;21.60;45.30;;;;;;5025973;28;20065;-66
2022/11/14 09:47:44;;;;;;;6.35;4.97;;;21.60;45.20;;;;;;5015258;28;20172;-66
2022/11/14 09:50:25;;;;;;;7.80;4.80;;;21.60;45.20;;;;;;5018436;28;20529;-65
2022/11/14 09:52:57;;;;;;;6.18;5.25;;;21.60;45.20;;;;;;5014001;28;20053;-65
2022/11/14 09:55:30;;;;;;;6.07;4.82;;;21.60;45.10;;;;;;5019118;28;20403;-66
2022/11/14 09:58:05;;;;;;;5.93;5.30;;;21.60;45.10;;;;;;5016997;28;20396;-66
2022/11/14 10:00:55;;;;;;;6.32;4.75;;;21.60;45.10;;;;;;5013042;28;20056;-66
2022/11/14 10:03:32;;;;;;;;;;;21.70;45.20;;;;;;5014067;28;20144;-67
2022/11/14 10:06:25;;;;;;;6.90;5.45;;;21.70;45.30;;;;;;5015293;28;19925;-66
2022/11/14 10:09:33;;;;;;;9.15;5.38;;;21.60;45.20;;;;;;5018613;28;20045;-68
2022/11/14 10:12:19;;;;;;;8.07;5.28;;;21.70;45.20;;;;;;5017032;28;20050;-67
2022/11/14 10:15:04;;;;;;;6.13;4.90;;;21.70;45.20;;;;;;5020153;28;20046;-67
2022/11/14 10:18:11;;;;;;;6.88;5.70;;;21.70;45.20;;;;;;5022036;28;20041;-66
2022/11/14 10:20:52;;;;;;;5.97;5.07;;;21.70;45.00;;;;;;5006780;28;20045;-66
2022/11/14 10:23:51;;;;;;;8.77;4.68;;;21.70;45.00;;;;;;5019456;28;20182;-66
2022/11/14 10:26:28;;;;;;;6.93;4.82;;;21.80;45.00;;;;;;5022160;28;20077;-66
2022/11/14 10:29:31;;;;;;;6.75;5.50;;;21.80;44.90;;;;;;5019475;28;20049;-66
2022/11/14 10:32:15;;;;;;;6.15;5.28;;;21.80;44.90;;;;;;5013654;28;20129;-69
2022/11/14 10:34:55;;;;;;;8.88;5.95;;;21.80;44.80;;;;;;4993077;28;20050;-63
2022/11/14 10:37:30;;;;;;;6.17;5.03;;;21.80;44.80;;;;;;5018364;28;20084;-67
2022/11/14 10:40:22;;;;;;;8.40;5.03;;;21.80;45.10;;;;;;5015416;28;20053;-65
2022/11/14 10:43:01;;;;;;;5.97;5.38;;;21.80;45.50;;;;;;5015251;28;20053;-68
2022/11/14 10:45:33;;;;;;;6.72;5.85;;;21.80;45.90;;;;;;5015521;28;20045;-66
2022/11/14 10:48:09;;;;;;;6.68;5.63;;;21.80;46.10;;;;;;4993701;28;20042;-66
2022/11/14 10:50:54;;;;;;;8.40;6.03;;;21.90;46.30;;;;;;5018916;28;20041;-67
2022/11/14 10:53:43;;;;;;;9.15;6.43;;;21.90;46.40;;;;;;5017987;28;20045;-66
2022/11/14 10:56:11;;;;;;;7.15;6.07;;;21.90;46.40;;;;;;5014927;28;20049;-67
2022/11/14 10:58:39;;;;;;;8.60;6.43;;;22.00;46.50;;;;;;5014256;28;20050;-67
2022/11/14 11:01:41;;;;;;;11.40;5.72;;;22.00;46.50;;;;;;5016989;28;20057;-68
2022/11/14 11:04:31;;;;;;;7.30;6.00;;;22.10;46.50;;;;;;5023285;28;20049;-67
2022/11/14 11:13:27;;;;;;;8.60;7.32;;;22.10;46.30;;;;;;5018151;28;20236;-65
2022/11/14 11:15:58;;;;;;;11.15;7.25;;;22.10;46.20;;;;;;5022146;28;20513;-65
2022/11/14 11:18:32;;;;;;;8.00;7.10;;;22.10;45.90;;;;;;5026337;28;20414;-65
2022/11/14 11:21:09;;;;;;;8.80;6.95;;;22.10;45.70;;;;;;5021575;28;20132;-66
2022/11/14 11:23:48;;;;;;;9.70;7.82;;;22.10;45.50;;;;;;5024971;28;20053;-66
2022/11/14 11:26:21;;;;;;;10.23;7.65;;;22.10;45.30;;;;;;5021014;28;20503;-65
2022/11/14 11:29:17;;;;;;;10.32;7.95;;;22.10;45.20;;;;;;4996521;28;20058;-65
2022/11/14 11:31:50;;;;;;;9.57;7.65;;;22.20;45.10;;;;;;5019822;28;20107;-66
2022/11/14 11:34:30;;;;;;;9.52;7.60;;;22.10;45.00;;;;;;5022564;28;20056;-66
2022/11/14 11:37:17;;;;;;;9.48;8.10;;;22.10;45.00;;;;;;5021667;28;20137;-66
2022/11/14 11:39:50;;;;;;;11.32;8.05;;;22.10;44.90;;;;;;5022301;28;20509;-66
2022/11/14 11:42:24;;;;;;;12.15;8.25;;;22.10;44.90;;;;;;5021223;28;20709;-64
2022/11/14 11:44:58;;;;;;;11.48;8.30;;;22.10;45.00;;;;;;5022389;28;20069;-65
2022/11/14 11:47:29;;;;;;;10.85;8.45;;;22.10;45.20;;;;;;5001430;28;20332;-65
2022/11/14 11:49:58;;;;;;;10.82;8.15;;;22.10;45.40;;;;;;5017196;28;20127;-66
2022/11/14 11:52:50;;;;;;;11.07;9.00;;;22.10;45.50;;;;;;5021049;28;20055;-67
2022/11/14 11:55:26;;;;;;;11.20;8.75;;;22.10;45.50;;;;;;5023881;28;20525;-65
2022/11/14 11:58:33;;;;;;;12.00;9.40;;;22.10;45.60;;;;;;5021748;28;20053;-75
2022/11/14 12:01:01;;;;;;;15.57;9.27;;;22.10;45.60;;;;;;5011182;28;20103;-66
2022/11/14 12:03:28;;;;;;;11.73;8.48;;;22.10;45.70;;;;;;5022955;28;20415;-67
2022/11/14 12:06:10;;;;;;;13.48;9.68;;;22.10;45.60;;;;;;5017184;28;20050;-65
2022/11/14 12:09:10;;;;;;;11.82;9.20;;;22.20;45.70;;;;;;5019963;28;20071;-67
2022/11/14 12:11:42;;;;;;;11.93;9.15;;;22.20;45.70;;;;;;4999671;28;20048;-66
2022/11/14 12:14:38;;;;;;;12.00;9.20;;;22.20;45.60;;;;;;5017958;28;20060;-67
2022/11/14 12:17:45;;;;;;;13.25;9.48;;;22.20;45.50;;;;;;5016984;28;20050;-69
2022/11/14 12:20:39;;;;;;;12.27;9.30;;;22.20;45.50;;;;;;5008413;28;20049;-65
2022/11/14 12:23:46;;;;;;;12.77;9.32;;;22.20;45.50;;;;;;5019309;28;20069;-65
2022/11/14 12:26:43;;;;;;;12.38;9.38;;;22.20;45.50;;;;;;5004056;28;20041;-63
2022/11/14 12:29:49;;;;;;;16.35;10.70;;;22.20;45.50;;;;;;5025083;28;20479;-74
2022/11/14 12:32:30;;;;;;;14.57;10.88;;;22.20;45.60;;;;;;5005033;28;20053;-63
2022/11/14 12:35:02;;;;;;;15.55;9.88;;;22.20;45.60;;;;;;5015505;28;20545;-64
2022/11/14 12:37:35;;;;;;;15.43;10.80;;;22.30;45.70;;;;;;5018462;28;20056;-63
2022/11/14 12:40:17;;;;;;;13.98;10.48;;;22.30;45.60;;;;;;5013843;28;20056;-64
2022/11/14 12:42:47;;;;;;;12.43;10.07;;;22.20;45.80;;;;;;5014330;28;20507;-62
2022/11/14 12:45:54;;;;;;;14.02;10.30;;;22.20;46.10;;;;;;5020976;28;20046;-63
2022/11/14 12:48:29;;;;;;;15.60;10.98;;;22.30;46.40;;;;;;5007571;28;20136;-62
2022/11/14 12:50:58;;;;;;;12.70;10.35;;;22.30;46.50;;;;;;5001355;28;20054;-64
2022/11/14 12:53:40;;;;;;;14.95;11.68;;;22.20;46.40;;;;;;5022053;28;20045;-63
2022/11/14 12:56:45;;;;;;;12.63;10.07;;;22.30;46.50;;;;;;5016578;28;20042;-64
2022/11/14 12:59:44;;;;;;;13.27;9.75;;;22.20;46.50;;;;;;5015001;28;20045;-64
2022/11/14 13:02:24;;;;;;;;;;;22.30;46.90;;;;;;5015540;28;20046;-62
2022/11/14 13:05:22;;;;;;;13.50;10.60;;;22.30;46.70;;;;;;5016188;28;20461;-62
2022/11/14 13:08:29;;;;;;;13.45;11.15;;;22.40;46.80;;;;;;5022535;28;20706;-64
2022/11/14 13:10:56;;;;;;;16.50;11.07;;;22.40;46.70;;;;;;5016015;28;20402;-66
2022/11/14 13:22:34;;;;;;;46.95;13.15;;;22.40;46.60;;;;;;5023151;28;20045;-67
2022/11/14 13:25:22;;;;;;;37.30;12.68;;;22.50;46.60;;;;;;5021109;28;20057;-67
2022/11/14 13:27:49;;;;;;;31.50;11.68;;;22.50;47.10;;;;;;5019225;28;20060;-66
2022/11/14 13:31:16;;;;;;;29.75;11.70;;;22.50;46.50;;;;;;5015549;28;20045;-68